createdAt,value
2023-02-27T00:01:50.772Z,4.22
2023-02-27T00:04:17.210Z,6.90
2023-02-27T00:06:43.713Z,4.47
2023-02-27T00:09:10.139Z,4.28
2023-02-27T00:11:38.555Z,5.90
2023-02-27T00:14:05.213Z,4.20
2023-02-27T00:16:31.616Z,4.07
2023-02-27T00:19:01.238Z,3.90
2023-02-27T00:21:28.187Z,3.92
2023-02-27T00:23:55.384Z,3.28
2023-02-27T00:26:21.958Z,4.60
2023-02-27T00:28:48.449Z,4.35
2023-02-27T00:31:14.972Z,3.35
2023-02-27T00:33:43.902Z,4.10
2023-02-27T00:36:10.520Z,3.35
2023-02-27T00:38:37.025Z,5.28
2023-02-27T00:41:03.933Z,3.95
2023-02-27T00:43:30.353Z,3.63
2023-02-27T00:45:56.832Z,3.38
2023-02-27T00:48:23.331Z,3.28
2023-02-27T00:50:50.387Z,3.70
2023-02-27T00:53:17.214Z,3.95
2023-02-27T00:55:43.760Z,3.30
2023-02-27T00:58:10.154Z,4.53
2023-02-27T01:00:36.664Z,4.60
2023-02-27T01:03:03.901Z,2.83
2023-02-27T01:05:30.335Z,4.05
2023-02-27T01:07:56.925Z,5.03
2023-02-27T01:10:23.506Z,3.53
2023-02-27T01:12:49.962Z,14.40
2023-02-27T01:15:16.463Z,8.82
2023-02-27T01:17:43.149Z,6.57
2023-02-27T01:20:11.388Z,5.57
2023-02-27T01:22:38.023Z,5.63
2023-02-27T01:25:04.666Z,5.28
2023-02-27T01:27:31.045Z,5.30
2023-02-27T01:29:57.385Z,9.75
2023-02-27T01:32:24.030Z,11.10
2023-02-27T01:34:50.426Z,17.48
2023-02-27T01:37:16.951Z,7.18
2023-02-27T01:39:43.406Z,6.18
2023-02-27T01:42:18.298Z,8.90
2023-02-27T01:45:20.315Z,8.13
2023-02-27T01:47:51.420Z,7.40
2023-02-27T01:50:18.286Z,7.78
2023-02-27T01:52:45.702Z,6.45
2023-02-27T01:55:13.322Z,7.50
2023-02-27T01:57:41.055Z,6.80
2023-02-27T02:00:09.020Z,6.80
2023-02-27T02:02:38.021Z,6.05
2023-02-27T02:05:05.763Z,6.35
2023-02-27T02:07:33.858Z,6.50
2023-02-27T02:10:01.397Z,7.85
2023-02-27T02:12:33.959Z,6.70
2023-02-27T02:15:00.319Z,6.82
2023-02-27T02:17:45.481Z,5.13
2023-02-27T02:20:17.937Z,6.45
2023-02-27T02:22:53.569Z,6.43
2023-02-27T02:25:38.695Z,5.22
2023-02-27T02:28:23.958Z,6.90
2023-02-27T02:31:19.184Z,5.20
2023-02-27T02:34:00.603Z,4.60
2023-02-27T02:36:29.935Z,5.18
2023-02-27T02:39:02.486Z,6.28
2023-02-27T02:41:31.857Z,4.95
2023-02-27T02:44:16.984Z,7.72
2023-02-27T02:47:05.506Z,5.18
2023-02-27T02:49:34.860Z,6.22
2023-02-27T02:52:05.474Z,5.57
2023-02-27T02:54:38.059Z,4.97
2023-02-27T02:57:15.280Z,5.50
2023-02-27T02:59:41.654Z,7.78
2023-02-27T03:02:10.281Z,6.70
2023-02-27T03:04:42.820Z,5.32
2023-02-27T03:07:09.164Z,6.63
2023-02-27T03:09:38.444Z,4.93
2023-02-27T03:12:06.019Z,5.07
2023-02-27T03:14:35.524Z,4.80
2023-02-27T03:17:05.788Z,7.35
2023-02-27T03:19:46.787Z,5.72
2023-02-27T03:22:18.991Z,6.25
2023-02-27T03:24:49.881Z,8.05
2023-02-27T03:27:17.481Z,7.78
2023-02-27T03:29:56.672Z,6.85
2023-02-27T03:32:29.084Z,5.47
2023-02-27T03:34:55.564Z,9.30
2023-02-27T03:37:30.237Z,7.65
2023-02-27T03:39:59.712Z,7.55
2023-02-27T03:42:35.286Z,9.55
2023-02-27T03:45:07.755Z,8.52
2023-02-27T03:47:34.431Z,6.97
2023-02-27T03:50:00.863Z,7.65
2023-02-27T03:52:28.712Z,5.93
2023-02-27T03:54:57.636Z,5.80
2023-02-27T03:57:24.136Z,8.15
2023-02-27T03:59:50.699Z,6.72
2023-02-27T04:02:17.291Z,7.15
2023-02-27T04:04:46.028Z,6.70
2023-02-27T04:07:25.159Z,6.60
2023-02-27T04:09:58.631Z,5.38
2023-02-27T04:12:31.473Z,5.93
2023-02-27T04:15:16.609Z,6.63
2023-02-27T04:17:54.738Z,6.97
2023-02-27T04:20:31.695Z,5.78
2023-02-27T04:22:59.863Z,6.05
2023-02-27T04:25:48.607Z,6.43
2023-02-27T04:28:17.682Z,6.68
2023-02-27T04:31:03.278Z,6.53
2023-02-27T04:33:37.602Z,7.65
2023-02-27T04:36:13.216Z,6.35
2023-02-27T04:38:44.681Z,7.53
2023-02-27T04:41:11.251Z,8.75
2023-02-27T04:43:38.958Z,6.90
2023-02-27T04:46:06.550Z,7.38
2023-02-27T04:48:36.080Z,6.80
2023-02-27T04:51:06.513Z,6.97
2023-02-27T04:53:53.177Z,6.25
2023-02-27T04:56:22.454Z,7.20
2023-02-27T04:58:51.878Z,9.35
2023-02-27T05:01:20.552Z,7.68
2023-02-27T05:03:48.210Z,6.22
2023-02-27T05:06:16.959Z,5.70
2023-02-27T05:08:53.400Z,7.15
2023-02-27T05:11:38.636Z,8.60
2023-02-27T05:14:19.584Z,5.07
2023-02-27T05:16:51.937Z,5.95
2023-02-27T05:19:22.073Z,6.32
2023-02-27T05:21:51.440Z,5.97
2023-02-27T05:24:23.913Z,7.43
2023-02-27T05:27:03.908Z,6.63
2023-02-27T05:29:50.565Z,7.22
2023-02-27T05:32:30.706Z,6.40
2023-02-27T05:35:00.306Z,4.75
2023-02-27T05:37:30.629Z,6.28
2023-02-27T05:39:58.287Z,7.70
2023-02-27T05:42:28.697Z,10.50
2023-02-27T05:44:57.048Z,8.68
2023-02-27T05:47:24.299Z,6.50
2023-02-27T05:50:03.861Z,9.35
2023-02-27T05:52:30.840Z,6.28
2023-02-27T05:55:00.835Z,6.15
2023-02-27T05:57:31.878Z,8.23
2023-02-27T06:00:03.053Z,5.40
2023-02-27T06:02:29.549Z,8.05
2023-02-27T06:04:56.378Z,8.30
2023-02-27T06:07:22.874Z,5.97
2023-02-27T06:09:49.596Z,6.60
2023-02-27T06:12:15.979Z,7.70
2023-02-27T06:14:42.337Z,6.43
2023-02-27T06:17:08.709Z,7.18
2023-02-27T06:19:35.399Z,6.82
2023-02-27T06:22:02.300Z,5.43
2023-02-27T06:24:28.639Z,6.88
2023-02-27T06:26:54.981Z,7.38
2023-02-27T06:29:21.672Z,9.18
2023-02-27T06:31:48.099Z,4.90
2023-02-27T06:34:16.847Z,8.02
2023-02-27T06:36:45.517Z,6.90
2023-02-27T06:39:12.152Z,6.40
2023-02-27T06:41:39.207Z,10.25
2023-02-27T06:44:07.688Z,9.63
2023-02-27T06:46:34.109Z,7.82
2023-02-27T06:49:00.536Z,7.70
2023-02-27T06:51:26.936Z,8.43
2023-02-27T06:53:53.304Z,8.18
2023-02-27T06:56:19.696Z,9.02
2023-02-27T06:58:49.091Z,6.78
2023-02-27T07:01:16.286Z,8.60
2023-02-27T07:03:42.919Z,7.78
2023-02-27T07:06:09.833Z,8.05
2023-02-27T07:08:36.218Z,8.45
2023-02-27T07:11:05.078Z,7.07
2023-02-27T07:13:31.434Z,8.57
2023-02-27T07:15:57.853Z,7.88
2023-02-27T07:18:25.606Z,8.05
2023-02-27T07:20:52.148Z,7.20
2023-02-27T07:23:18.867Z,5.68
2023-02-27T07:25:46.408Z,9.52
2023-02-27T07:28:12.832Z,8.50
2023-02-27T07:30:39.264Z,9.13
2023-02-27T07:33:06.094Z,8.02
2023-02-27T07:35:32.638Z,7.88
2023-02-27T07:37:59.062Z,9.95
2023-02-27T07:40:25.469Z,9.32
2023-02-27T07:42:53.323Z,9.45
2023-02-27T07:45:19.788Z,10.40
2023-02-27T07:47:46.635Z,6.68
2023-02-27T07:50:14.128Z,7.60
2023-02-27T07:52:41.219Z,6.80
2023-02-27T07:55:08.025Z,10.43
2023-02-27T07:57:34.425Z,5.78
2023-02-27T08:00:00.794Z,6.65
2023-02-27T08:02:27.708Z,6.78
2023-02-27T08:04:54.246Z,6.93
2023-02-27T08:07:20.732Z,7.35
2023-02-27T08:09:47.095Z,10.57
2023-02-27T08:12:13.508Z,13.88
2023-02-27T08:14:39.950Z,6.57
2023-02-27T08:17:06.470Z,10.52
2023-02-27T08:19:33.383Z,7.65
2023-02-27T08:21:59.751Z,8.25
2023-02-27T08:24:26.098Z,6.82
2023-02-27T08:26:52.521Z,7.40
2023-02-27T08:29:21.353Z,7.47
2023-02-27T08:31:47.851Z,12.13
2023-02-27T08:34:14.902Z,10.35
2023-02-27T08:36:41.299Z,6.97
2023-02-27T08:39:13.580Z,4.57
2023-02-27T08:41:39.933Z,7.03
2023-02-27T08:44:06.363Z,7.70
2023-02-27T08:46:32.850Z,6.43
2023-02-27T08:48:59.485Z,6.20
2023-02-27T08:51:26.214Z,7.70
2023-02-27T08:53:54.962Z,6.53
2023-02-27T08:56:21.387Z,8.80
2023-02-27T08:58:50.197Z,6.22
2023-02-27T09:01:16.582Z,3.47
2023-02-27T09:03:43.866Z,7.05
2023-02-27T09:06:10.312Z,5.65
2023-02-27T09:08:36.736Z,5.85
2023-02-27T09:11:03.203Z,4.57
2023-02-27T09:13:29.857Z,7.63
2023-02-27T09:15:56.340Z,5.07
2023-02-27T09:18:22.984Z,7.50
2023-02-27T09:20:51.180Z,6.10
2023-02-27T09:23:17.817Z,8.23
2023-02-27T09:25:44.647Z,7.57
2023-02-27T09:28:11.206Z,10.65
2023-02-27T09:30:37.621Z,4.40
2023-02-27T09:33:04.094Z,8.55
2023-02-27T09:35:30.537Z,7.28
2023-02-27T09:37:57.869Z,6.55
2023-02-27T09:40:29.119Z,4.38
2023-02-27T09:42:58.230Z,5.18
2023-02-27T09:45:26.014Z,4.28
2023-02-27T09:48:00.538Z,6.72
2023-02-27T09:50:32.776Z,5.80
2023-02-27T09:53:00.418Z,10.23
2023-02-27T09:55:29.818Z,6.00
2023-02-27T09:58:04.453Z,6.53
2023-02-27T10:00:30.858Z,8.18
2023-02-27T10:03:15.656Z,7.55
2023-02-27T10:05:51.141Z,7.32
2023-02-27T10:08:23.275Z,9.10
2023-02-27T10:11:00.960Z,6.35
2023-02-27T10:13:27.374Z,8.40
2023-02-27T10:15:54.266Z,5.75
2023-02-27T10:18:30.687Z,6.05
2023-02-27T10:21:02.860Z,4.55
2023-02-27T10:23:32.483Z,5.03
2023-02-27T10:25:59.398Z,7.00
2023-02-27T10:28:29.529Z,5.22
2023-02-27T10:30:58.605Z,5.00
2023-02-27T10:33:33.857Z,5.25
2023-02-27T10:36:02.847Z,5.15
2023-02-27T10:38:39.766Z,3.45
2023-02-27T10:41:07.393Z,5.93
2023-02-27T10:43:34.189Z,4.93
2023-02-27T10:46:01.543Z,5.50
2023-02-27T10:48:30.678Z,6.47
2023-02-27T10:51:17.431Z,4.88
2023-02-27T10:53:46.448Z,6.80
2023-02-27T10:56:15.565Z,4.97
2023-02-27T10:58:42.097Z,5.20
2023-02-27T11:01:13.428Z,6.10
2023-02-27T11:03:41.612Z,7.68
2023-02-27T11:06:27.578Z,10.82
2023-02-27T11:09:12.822Z,5.35
2023-02-27T11:11:39.546Z,5.63
2023-02-27T11:14:25.076Z,6.72
2023-02-27T11:16:53.546Z,5.68
2023-02-27T11:19:29.125Z,6.75
2023-02-27T11:22:01.725Z,5.93
2023-02-27T11:24:29.114Z,7.13
2023-02-27T11:26:56.983Z,6.15
2023-02-27T11:29:23.707Z,5.70
2023-02-27T11:31:53.391Z,7.07
2023-02-27T11:34:31.151Z,6.43
2023-02-27T11:37:02.036Z,6.32
2023-02-27T11:39:34.030Z,7.45
2023-02-27T11:42:07.184Z,9.65
2023-02-27T11:44:50.085Z,6.38
2023-02-27T11:47:21.029Z,6.20
2023-02-27T11:49:56.593Z,6.90
2023-02-27T11:52:29.820Z,7.05
2023-02-27T11:54:57.956Z,6.72
2023-02-27T11:57:26.660Z,5.28
2023-02-27T12:00:06.624Z,5.63
2023-02-27T12:02:33.134Z,4.80
2023-02-27T12:04:59.590Z,4.25
2023-02-27T12:07:27.925Z,11.25
2023-02-27T12:09:59.744Z,12.75
2023-02-27T12:12:34.051Z,6.07
2023-02-27T12:15:05.024Z,4.97
2023-02-27T12:17:45.449Z,9.23
2023-02-27T12:20:14.984Z,6.68
2023-02-27T12:22:45.830Z,6.22
2023-02-27T12:25:18.320Z,7.07
2023-02-27T12:27:56.988Z,9.32
2023-02-27T12:30:28.314Z,5.38
2023-02-27T12:33:10.251Z,9.88
2023-02-27T12:35:36.744Z,6.20
2023-02-27T12:38:05.255Z,16.13
2023-02-27T12:40:51.367Z,8.05
2023-02-27T12:43:37.641Z,6.22
2023-02-27T12:46:16.363Z,9.35
2023-02-27T12:48:55.807Z,7.82
2023-02-27T12:51:28.575Z,4.78
2023-02-27T12:54:04.272Z,5.05
2023-02-27T12:56:36.753Z,5.60
2023-02-27T12:59:14.080Z,3.88
2023-02-27T13:01:58.651Z,6.53
2023-02-27T13:04:43.915Z,6.43
2023-02-27T13:07:10.370Z,4.72
2023-02-27T13:09:43.255Z,6.28
2023-02-27T13:12:12.752Z,6.95
2023-02-27T13:14:57.698Z,6.25
2023-02-27T13:17:34.487Z,6.03
2023-02-27T13:20:16.384Z,7.40
2023-02-27T13:22:43.170Z,5.85
2023-02-27T13:25:17.556Z,6.72
2023-02-27T13:27:50.054Z,8.52
2023-02-27T13:30:25.521Z,5.45
2023-02-27T13:33:11.049Z,8.25
2023-02-27T13:35:43.852Z,6.68
2023-02-27T13:38:31.547Z,9.03
2023-02-27T13:40:59.908Z,5.90
2023-02-27T13:43:52.175Z,9.27
2023-02-27T13:46:25.409Z,7.05
2023-02-27T13:48:53.958Z,4.80
2023-02-27T13:51:53.730Z,7.70
2023-02-27T13:54:21.767Z,6.30
2023-02-27T13:56:48.230Z,10.55
2023-02-27T13:59:23.775Z,7.15
2023-02-27T14:01:53.864Z,5.95
2023-02-27T14:04:20.909Z,5.55
2023-02-27T14:06:47.773Z,7.70
2023-02-27T14:09:19.898Z,170.13
2023-02-27T14:11:58.118Z,34.17
2023-02-27T14:14:54.063Z,16.27
2023-02-27T14:18:02.409Z,10.27
2023-02-27T14:20:32.612Z,11.02
2023-02-27T14:23:17.467Z,7.75
2023-02-27T14:25:46.773Z,5.38
2023-02-27T14:28:30.352Z,4.88
2023-02-27T14:31:01.073Z,7.53
2023-02-27T14:33:40.018Z,8.60
2023-02-27T14:36:15.931Z,8.23
2023-02-27T14:38:42.648Z,5.40
2023-02-27T14:41:14.821Z,5.88
2023-02-27T14:43:44.303Z,5.85
2023-02-27T14:46:28.699Z,5.20
2023-02-27T14:49:00.251Z,6.05
2023-02-27T14:51:27.601Z,8.45
2023-02-27T14:54:00.365Z,8.95
2023-02-27T14:56:27.190Z,8.68
2023-02-27T14:59:03.759Z,4.90
2023-02-27T15:01:33.769Z,8.40
2023-02-27T15:04:00.605Z,6.50
2023-02-27T15:06:30.460Z,13.48
2023-02-27T15:08:57.291Z,7.63
2023-02-27T15:11:24.847Z,7.43
2023-02-27T15:13:56.721Z,6.85
2023-02-27T15:16:26.153Z,6.03
2023-02-27T15:18:54.158Z,4.82
2023-02-27T15:21:24.048Z,8.57
2023-02-27T15:23:57.619Z,6.93
2023-02-27T15:28:50.818Z,6.57
2023-02-27T15:31:27.038Z,6.30
2023-02-27T15:33:56.868Z,7.22
2023-02-27T15:36:28.609Z,7.07
2023-02-27T15:39:07.375Z,121.90
2023-02-27T15:41:34.441Z,14.68
2023-02-27T15:44:01.934Z,9.38
2023-02-27T15:46:28.536Z,8.63
2023-02-27T15:48:57.710Z,9.93
2023-02-27T15:51:25.558Z,8.57
2023-02-27T15:53:54.516Z,29.50
2023-02-27T15:56:31.360Z,12.10
2023-02-27T15:59:00.769Z,7.90
2023-02-27T16:01:32.409Z,6.18
2023-02-27T16:04:00.292Z,6.93
2023-02-27T16:06:27.523Z,6.47
2023-02-27T16:08:56.416Z,5.85
2023-02-27T16:11:28.143Z,7.80
2023-02-27T16:13:55.462Z,6.88
2023-02-27T16:16:24.815Z,10.43
2023-02-27T16:18:52.493Z,10.00
2023-02-27T16:21:23.083Z,7.95
2023-02-27T16:23:50.160Z,11.55
2023-02-27T16:26:38.323Z,8.50
2023-02-27T16:29:28.540Z,7.70
2023-02-27T16:31:56.125Z,6.07
2023-02-27T16:34:42.715Z,14.50
2023-02-27T16:37:19.505Z,8.98
2023-02-27T16:39:46.019Z,7.65
2023-02-27T16:42:12.452Z,7.70
2023-02-27T16:44:38.943Z,7.80
2023-02-27T16:47:05.380Z,7.70
2023-02-27T16:49:34.365Z,7.15
2023-02-27T16:52:01.915Z,8.27
2023-02-27T16:54:28.373Z,13.95
2023-02-27T16:56:54.840Z,12.48
2023-02-27T16:59:30.554Z,6.82
2023-02-27T17:01:57.403Z,8.35
2023-02-27T17:04:26.072Z,10.77
2023-02-27T17:06:53.105Z,10.32
2023-02-27T17:09:19.679Z,10.57
2023-02-27T17:11:46.261Z,13.95
2023-02-27T17:14:13.315Z,10.05
2023-02-27T17:16:39.808Z,17.35
2023-02-27T17:19:06.542Z,15.57
2023-02-27T17:21:35.023Z,18.67
2023-02-27T17:24:04.136Z,45.42
2023-02-27T17:26:31.212Z,97.97
2023-02-27T17:28:58.604Z,30.42
2023-02-27T17:31:25.714Z,20.45
2023-02-27T17:33:53.524Z,21.75
2023-02-27T17:36:20.256Z,18.90
2023-02-27T17:38:47.989Z,19.13
2023-02-27T17:41:15.130Z,20.58
2023-02-27T17:43:41.793Z,9.98
2023-02-27T17:46:09.447Z,11.63
2023-02-27T17:48:36.550Z,11.68
2023-02-27T17:51:04.353Z,13.43
2023-02-27T17:53:30.810Z,18.25
2023-02-27T17:55:57.233Z,15.93
2023-02-27T17:58:26.079Z,18.85
2023-02-27T18:00:55.080Z,13.98
2023-02-27T18:03:21.578Z,13.75
2023-02-27T18:05:51.878Z,20.05
2023-02-27T18:08:18.913Z,29.50
2023-02-27T18:10:49.223Z,14.18
2023-02-27T18:13:18.920Z,9.38
2023-02-27T18:15:45.836Z,4.78
2023-02-27T18:18:12.933Z,8.15
2023-02-27T18:20:42.290Z,6.95
2023-02-27T18:23:09.357Z,8.35
2023-02-27T18:25:36.454Z,6.55
2023-02-27T18:28:03.317Z,4.75
2023-02-27T18:30:30.931Z,7.43
2023-02-27T18:32:58.230Z,18.83
2023-02-27T18:35:25.051Z,23.88
2023-02-27T18:37:52.123Z,19.13
2023-02-27T18:40:24.532Z,15.20
2023-02-27T18:42:52.477Z,12.65
2023-02-27T18:45:19.772Z,32.85
2023-02-27T18:47:46.345Z,28.27
2023-02-27T18:50:13.438Z,12.32
2023-02-27T18:52:39.914Z,21.67
2023-02-27T18:55:07.030Z,16.63
2023-02-27T18:57:33.544Z,7.72
2023-02-27T19:00:00.413Z,38.25
2023-02-27T19:02:26.952Z,37.38
2023-02-27T19:04:53.475Z,25.88
2023-02-27T19:07:22.342Z,22.10
2023-02-27T19:09:49.166Z,55.90
2023-02-27T19:12:17.752Z,36.17
2023-02-27T19:14:44.458Z,17.60
2023-02-27T19:17:11.148Z,6.00
2023-02-27T19:19:40.165Z,6.05
2023-02-27T19:22:06.639Z,63.58
2023-02-27T19:24:33.321Z,9.63
2023-02-27T19:27:02.315Z,31.17
2023-02-27T19:29:28.919Z,59.10
2023-02-27T19:31:56.101Z,66.90
2023-02-27T19:34:22.655Z,68.55
2023-02-27T19:36:51.705Z,21.65
2023-02-27T19:39:18.314Z,20.05
2023-02-27T19:41:44.813Z,132.07
2023-02-27T19:44:11.740Z,49.88
2023-02-27T19:46:40.890Z,85.38
2023-02-27T19:49:07.765Z,82.45
2023-02-27T19:51:34.326Z,121.50
2023-02-27T19:54:00.869Z,270.55
2023-02-27T19:56:28.038Z,52.22
2023-02-27T19:58:54.845Z,164.93
2023-02-27T20:01:21.385Z,154.30
2023-02-27T20:03:48.142Z,29.30
2023-02-27T20:06:15.896Z,34.58
2023-02-27T20:08:42.963Z,11.98
2023-02-27T20:11:09.499Z,5.60
2023-02-27T20:13:36.050Z,5.63
2023-02-27T20:16:05.821Z,5.97
2023-02-27T20:18:32.340Z,7.40
2023-02-27T20:21:00.346Z,7.93
2023-02-27T20:23:27.352Z,9.02
2023-02-27T20:25:53.820Z,9.57
2023-02-27T20:28:20.537Z,7.88
2023-02-27T20:30:47.274Z,6.28
2023-02-27T20:33:13.746Z,4.68
2023-02-27T20:35:42.785Z,4.22
2023-02-27T20:38:09.278Z,5.03
2023-02-27T20:40:36.204Z,3.72
2023-02-27T20:43:04.048Z,4.80
2023-02-27T20:45:30.559Z,4.57
2023-02-27T20:47:57.002Z,6.47
2023-02-27T20:50:23.489Z,47.60
2023-02-27T20:52:53.515Z,29.75
2023-02-27T20:55:19.969Z,9.48
2023-02-27T20:57:46.437Z,9.23
2023-02-27T21:00:15.742Z,8.80
2023-02-27T21:02:42.296Z,5.10
2023-02-27T21:05:09.009Z,6.43
2023-02-27T21:07:37.988Z,9.98
2023-02-27T21:10:05.650Z,17.08
2023-02-27T21:12:34.565Z,23.52
2023-02-27T21:15:01.038Z,14.82
2023-02-27T21:17:29.952Z,36.80
2023-02-27T21:19:56.507Z,8.00
2023-02-27T21:22:23.327Z,5.68
2023-02-27T21:24:51.989Z,8.35
2023-02-27T21:27:21.346Z,6.53
2023-02-27T21:29:48.735Z,5.85
2023-02-27T21:32:15.780Z,5.25
2023-02-27T21:34:42.274Z,6.95
2023-02-27T21:37:10.598Z,6.80
2023-02-27T21:39:37.085Z,7.55
2023-02-27T21:42:03.705Z,6.15
2023-02-27T21:44:31.892Z,12.45
2023-02-27T21:46:58.450Z,13.68
2023-02-27T21:49:26.075Z,13.68
2023-02-27T21:51:52.772Z,15.18
2023-02-27T21:54:19.545Z,8.05
2023-02-27T21:56:47.015Z,8.38
2023-02-27T21:59:14.743Z,12.05
2023-02-27T22:01:47.190Z,125.22
2023-02-27T22:04:14.473Z,37.83
2023-02-27T22:06:41.126Z,11.57
2023-02-27T22:09:07.982Z,6.03
2023-02-27T22:11:35.021Z,8.23
2023-02-27T22:14:05.368Z,7.68
2023-02-27T22:16:31.952Z,7.88
2023-02-27T22:18:58.421Z,7.97
2023-02-27T22:21:26.601Z,7.15
2023-02-27T22:23:55.099Z,7.97
2023-02-27T22:26:24.164Z,7.80
2023-02-27T22:28:51.550Z,9.70
2023-02-27T22:31:22.489Z,9.27
2023-02-27T22:33:50.094Z,15.02
2023-02-27T22:36:20.626Z,12.65
2023-02-27T22:38:49.301Z,6.78
2023-02-27T22:41:18.443Z,6.47
2023-02-27T22:43:45.313Z,37.80
2023-02-27T22:46:12.961Z,55.90
2023-02-27T22:48:39.533Z,67.30
2023-02-27T22:51:07.348Z,35.08
2023-02-27T22:53:38.351Z,49.72
2023-02-27T22:56:12.643Z,87.82
2023-02-27T22:58:39.954Z,68.05
2023-02-27T23:01:16.761Z,40.10
2023-02-27T23:03:44.302Z,118.93
2023-02-27T23:06:12.745Z,57.85
2023-02-27T23:08:39.556Z,94.30
2023-02-27T23:11:06.548Z,50.72
2023-02-27T23:13:33.316Z,53.92
2023-02-27T23:16:02.944Z,109.40
2023-02-27T23:18:29.399Z,160.25
2023-02-27T23:20:55.853Z,142.90
2023-02-27T23:23:22.879Z,66.15
2023-02-27T23:25:49.305Z,80.80
2023-02-27T23:28:15.769Z,58.28
2023-02-27T23:30:42.265Z,85.03
2023-02-27T23:33:08.733Z,73.05
2023-02-27T23:35:35.224Z,87.53
2023-02-27T23:38:04.178Z,57.88
2023-02-27T23:40:30.802Z,29.55
2023-02-27T23:42:57.282Z,39.00
2023-02-27T23:45:23.752Z,33.75
2023-02-27T23:47:54.746Z,44.85
2023-02-27T23:50:23.519Z,18.90
2023-02-27T23:52:50.652Z,53.10
2023-02-27T23:55:17.587Z,52.58
2023-02-27T23:57:44.905Z,32.03
